createdAt,value
2023-04-25T00:00:34.919Z,14.17
2023-04-25T00:03:39.382Z,17.27
2023-04-25T00:06:43.117Z,21.40
2023-04-25T00:09:47.595Z,16.93
2023-04-25T00:12:51.153Z,19.17
2023-04-25T00:15:57.262Z,19.53
2023-04-25T00:19:00.975Z,12.80
2023-04-25T00:22:04.821Z,14.27
2023-04-25T00:25:09.499Z,18.67
2023-04-25T00:28:13.362Z,25.33
2023-04-25T00:31:18.306Z,19.30
2023-04-25T00:34:22.396Z,14.00
2023-04-25T00:37:26.402Z,19.20
2023-04-25T00:40:30.668Z,20.63
2023-04-25T00:43:35.970Z,21.13
2023-04-25T00:46:41.913Z,19.13
2023-04-25T00:49:45.538Z,23.70
2023-04-25T00:52:49.322Z,20.40
2023-04-25T00:55:54.495Z,16.53
2023-04-25T00:58:58.876Z,18.43
2023-04-25T01:02:03.874Z,17.00
2023-04-25T01:05:07.897Z,9.50
2023-04-25T01:08:11.903Z,22.97
2023-04-25T01:11:15.788Z,14.70
2023-04-25T01:14:19.474Z,21.33
2023-04-25T01:17:24.914Z,18.43
2023-04-25T01:20:29.392Z,16.33
2023-04-25T01:23:35.690Z,18.20
2023-04-25T01:26:41.126Z,15.00
2023-04-25T01:29:45.019Z,19.60
2023-04-25T01:32:50.463Z,25.17
2023-04-25T01:35:54.500Z,17.57
2023-04-25T01:39:00.004Z,17.43
2023-04-25T01:42:03.782Z,19.27
2023-04-25T01:45:09.240Z,16.40
2023-04-25T01:48:15.399Z,23.73
2023-04-25T01:51:19.708Z,15.70
2023-04-25T01:54:24.689Z,18.57
2023-04-25T01:57:28.298Z,28.20
2023-04-25T02:00:31.998Z,18.70
2023-04-25T02:03:37.465Z,13.40
2023-04-25T02:06:41.096Z,12.27
2023-04-25T02:09:46.061Z,13.53
2023-04-25T02:12:49.556Z,18.30
2023-04-25T02:15:53.178Z,11.97
2023-04-25T02:18:56.748Z,13.97
2023-04-25T02:22:00.571Z,14.30
2023-04-25T02:25:06.731Z,13.73
2023-04-25T02:28:10.255Z,18.03
2023-04-25T02:31:13.826Z,15.43
2023-04-25T02:34:17.343Z,18.10
2023-04-25T02:37:20.886Z,16.97
2023-04-25T02:40:25.824Z,21.77
2023-04-25T02:43:29.454Z,15.30
2023-04-25T02:49:42.667Z,12.07
2023-04-25T02:52:46.267Z,14.97
2023-04-25T02:55:51.074Z,22.80
2023-04-25T02:58:54.871Z,21.13
2023-04-25T03:01:58.538Z,13.43
2023-04-25T03:05:10.506Z,18.43
2023-04-25T03:08:14.056Z,15.70
2023-04-25T03:11:18.342Z,15.57
2023-04-25T03:14:21.964Z,15.83
2023-04-25T03:17:25.596Z,23.97
2023-04-25T03:20:30.634Z,20.70
2023-04-25T03:23:34.781Z,13.87
2023-04-25T03:26:38.438Z,12.00
2023-04-25T03:29:42.627Z,14.97
2023-04-25T03:32:46.280Z,17.13
2023-04-25T03:35:52.061Z,13.70
2023-04-25T03:38:55.849Z,16.33
2023-04-25T03:41:59.411Z,19.23
2023-04-25T03:45:03.008Z,18.17
2023-04-25T03:48:07.259Z,19.57
2023-04-25T03:51:12.368Z,18.90
2023-04-25T03:54:16.035Z,15.20
2023-04-25T03:57:19.569Z,18.40
2023-04-25T04:00:23.313Z,15.33
2023-04-25T04:03:27.080Z,18.70
2023-04-25T04:06:32.670Z,19.53
2023-04-25T04:09:36.227Z,11.47
2023-04-25T04:12:40.543Z,18.20
2023-04-25T04:15:44.342Z,12.07
2023-04-25T04:18:48.611Z,16.77
2023-04-25T04:21:53.657Z,16.73
2023-04-25T04:24:57.841Z,15.57
2023-04-25T04:28:02.008Z,13.47
2023-04-25T04:31:05.985Z,17.43
2023-04-25T04:34:10.604Z,14.33
2023-04-25T04:37:15.850Z,12.20
2023-04-25T04:40:20.279Z,14.83
2023-04-25T04:43:24.018Z,13.30
2023-04-25T04:46:29.131Z,19.70
2023-04-25T04:49:32.906Z,18.93
2023-04-25T04:52:38.428Z,19.73
2023-04-25T04:55:42.665Z,14.70
2023-04-25T04:58:46.272Z,12.03
2023-04-25T05:01:49.894Z,12.63
2023-04-25T05:04:53.937Z,12.57
2023-04-25T05:08:01.669Z,13.87
2023-04-25T05:11:05.701Z,11.60
2023-04-25T05:14:09.292Z,9.20
2023-04-25T05:17:13.178Z,10.37
2023-04-25T05:20:16.799Z,19.27
2023-04-25T05:23:21.756Z,13.37
2023-04-25T05:26:25.576Z,11.27
2023-04-25T05:29:29.072Z,8.03
2023-04-25T05:32:32.865Z,19.13
2023-04-25T05:35:36.685Z,10.97
2023-04-25T05:38:41.668Z,9.93
2023-04-25T05:41:45.373Z,15.97
2023-04-25T05:44:49.664Z,11.20
2023-04-25T05:47:53.478Z,11.37
2023-04-25T05:50:57.855Z,10.70
2023-04-25T05:54:02.948Z,12.83
2023-04-25T05:57:06.829Z,10.80
2023-04-25T06:00:12.084Z,13.97
2023-04-25T06:03:19.611Z,10.33
2023-04-25T06:06:24.858Z,15.23
2023-04-25T06:09:29.888Z,10.87
2023-04-25T06:12:33.468Z,13.60
2023-04-25T06:15:38.390Z,11.97
2023-04-25T06:18:42.003Z,16.00
2023-04-25T06:21:46.562Z,11.57
2023-04-25T06:24:51.577Z,10.13
2023-04-25T06:27:55.409Z,11.63
2023-04-25T06:30:59.119Z,10.53
2023-04-25T06:34:03.522Z,10.00
2023-04-25T06:37:07.254Z,7.33
2023-04-25T06:40:13.132Z,9.77
2023-04-25T06:43:16.752Z,11.63
2023-04-25T06:46:20.741Z,11.40
2023-04-25T06:49:24.501Z,11.57
2023-04-25T06:52:28.349Z,12.90
2023-04-25T06:55:33.428Z,11.47
2023-04-25T06:58:37.132Z,7.27
2023-04-25T07:01:41.329Z,5.80
2023-04-25T07:04:46.264Z,5.80
2023-04-25T07:07:49.875Z,7.53
2023-04-25T07:10:54.862Z,4.23
2023-04-25T07:13:58.536Z,6.83
2023-04-25T07:17:02.737Z,7.47
2023-04-25T07:20:08.914Z,7.10
2023-04-25T07:23:12.459Z,8.80
2023-04-25T07:26:17.597Z,8.00
2023-04-25T07:29:21.308Z,10.43
2023-04-25T07:32:25.022Z,10.37
2023-04-25T07:35:28.893Z,11.90
2023-04-25T07:38:32.437Z,8.60
2023-04-25T07:41:37.533Z,11.20
2023-04-25T07:44:41.388Z,13.17
2023-04-25T07:47:45.052Z,6.13
2023-04-25T07:50:48.769Z,7.67
2023-04-25T07:53:52.469Z,11.27
2023-04-25T07:56:57.486Z,7.87
2023-04-25T08:00:01.995Z,6.80
2023-04-25T08:03:10.533Z,7.40
2023-04-25T08:06:14.539Z,5.47
2023-04-25T08:09:18.509Z,12.07
2023-04-25T08:12:23.606Z,9.20
2023-04-25T08:15:27.508Z,4.87
2023-04-25T08:18:31.905Z,6.43
2023-04-25T08:21:35.676Z,8.83
2023-04-25T08:24:39.711Z,5.63
2023-04-25T08:27:45.394Z,8.57
2023-04-25T08:30:48.996Z,9.90
2023-04-25T08:33:53.065Z,8.77
2023-04-25T08:36:57.136Z,7.17
2023-04-25T08:40:00.879Z,7.07
2023-04-25T08:43:12.391Z,7.57
2023-04-25T08:46:20.595Z,4.73
2023-04-25T08:49:24.774Z,6.37
2023-04-25T08:52:37.522Z,8.13
2023-04-25T08:55:44.669Z,5.43
2023-04-25T08:58:51.773Z,3.97
2023-04-25T09:01:55.638Z,3.77
2023-04-25T09:05:00.131Z,6.33
2023-04-25T09:08:03.937Z,10.83
2023-04-25T09:11:07.506Z,6.03
2023-04-25T09:14:17.898Z,10.60
2023-04-25T09:17:21.522Z,4.10
2023-04-25T09:20:25.966Z,6.63
2023-04-25T09:23:29.593Z,4.10
2023-04-25T09:26:34.724Z,3.77
2023-04-25T09:29:41.861Z,7.33
2023-04-25T09:32:46.395Z,8.87
2023-04-25T09:35:53.976Z,4.20
2023-04-25T09:38:58.177Z,5.07
2023-04-25T09:42:02.536Z,4.20
2023-04-25T09:45:08.970Z,5.13
2023-04-25T09:48:12.601Z,4.43
2023-04-25T09:51:16.690Z,4.00
2023-04-25T09:54:20.364Z,6.57
2023-04-25T09:57:27.122Z,7.47
2023-04-25T10:00:34.298Z,7.80
2023-04-25T10:03:41.284Z,3.23
2023-04-25T10:06:48.312Z,10.27
2023-04-25T10:09:57.348Z,6.13
2023-04-25T10:13:02.430Z,6.77
2023-04-25T10:16:08.072Z,5.30
2023-04-25T10:19:12.556Z,7.80
2023-04-25T10:22:25.530Z,3.30
2023-04-25T10:25:29.540Z,3.00
2023-04-25T10:28:59.949Z,2.93
2023-04-25T10:32:05.643Z,5.83
2023-04-25T10:35:18.139Z,3.53
2023-04-25T10:38:21.914Z,2.87
2023-04-25T10:41:25.507Z,3.40
2023-04-25T10:44:30.505Z,6.13
2023-04-25T10:47:48.286Z,5.07
2023-04-25T10:50:51.901Z,5.00
2023-04-25T10:54:04.515Z,6.27
2023-04-25T10:57:08.145Z,7.13
2023-04-25T11:00:16.542Z,5.83
2023-04-25T11:03:26.848Z,7.13
2023-04-25T11:06:49.246Z,4.93
2023-04-25T11:09:54.253Z,4.23
2023-04-25T11:12:58.488Z,3.57
2023-04-25T11:16:12.138Z,7.30
2023-04-25T11:19:18.298Z,7.07
2023-04-25T11:22:25.084Z,6.83
2023-04-25T11:25:29.326Z,3.87
2023-04-25T11:28:32.941Z,6.03
2023-04-25T11:31:36.836Z,1.87
2023-04-25T11:34:44.930Z,4.83
2023-04-25T11:37:49.092Z,8.03
2023-04-25T11:40:53.769Z,4.47
2023-04-25T11:43:57.621Z,8.27
2023-04-25T11:47:01.206Z,6.10
2023-04-25T11:50:09.893Z,4.43
2023-04-25T11:53:14.091Z,6.97
2023-04-25T11:56:18.000Z,3.03
2023-04-25T11:59:27.407Z,5.33
2023-04-25T12:02:31.313Z,5.73
2023-04-25T12:05:38.881Z,3.47
2023-04-25T12:09:05.629Z,4.80
2023-04-25T12:12:12.804Z,3.73
2023-04-25T12:15:29.878Z,7.03
2023-04-25T12:18:33.665Z,4.63
2023-04-25T12:21:46.972Z,3.67
2023-04-25T12:25:00.750Z,4.50
2023-04-25T12:28:16.830Z,5.30
2023-04-25T12:31:20.756Z,9.17
2023-04-25T12:34:26.433Z,1.67
2023-04-25T12:37:32.122Z,5.87
2023-04-25T12:40:35.873Z,5.30
2023-04-25T12:43:39.604Z,3.67
2023-04-25T12:46:43.579Z,4.07
2023-04-25T12:49:47.216Z,4.10
2023-04-25T12:52:52.145Z,4.50
2023-04-25T12:59:05.141Z,4.63
2023-04-25T13:02:08.804Z,5.33
2023-04-25T13:05:12.469Z,2.60
2023-04-25T13:08:17.510Z,5.30
2023-04-25T13:11:21.758Z,4.20
2023-04-25T13:14:25.380Z,5.30
2023-04-25T13:17:29.114Z,3.23
2023-04-25T13:20:32.828Z,9.07
2023-04-25T13:23:37.973Z,3.40
2023-04-25T13:26:41.568Z,2.83
2023-04-25T13:29:45.154Z,3.80
2023-04-25T13:32:48.945Z,6.00
2023-04-25T13:35:54.978Z,6.07
2023-04-25T13:38:59.985Z,6.40
2023-04-25T13:42:04.158Z,4.50
2023-04-25T13:45:09.556Z,3.80
2023-04-25T13:48:13.247Z,4.03
2023-04-25T13:51:18.587Z,4.33
2023-04-25T13:54:24.161Z,5.90
2023-04-25T13:57:27.810Z,5.70
2023-04-25T14:00:32.468Z,3.53
2023-04-25T14:03:36.425Z,4.23
2023-04-25T14:06:40.215Z,1.93
2023-04-25T14:09:45.303Z,2.37
2023-04-25T14:12:49.079Z,3.97
2023-04-25T14:15:52.754Z,6.13
2023-04-25T14:18:56.593Z,5.83
2023-04-25T14:22:00.204Z,3.33
2023-04-25T14:25:06.441Z,5.47
2023-04-25T14:28:10.096Z,3.33
2023-04-25T14:31:13.985Z,3.77
2023-04-25T14:34:17.632Z,6.97
2023-04-25T14:37:21.727Z,3.93
2023-04-25T14:40:27.635Z,4.30
2023-04-25T14:43:31.341Z,3.70
2023-04-25T14:46:35.288Z,6.53
2023-04-25T14:49:39.127Z,5.23
2023-04-25T14:52:42.748Z,3.33
2023-04-25T14:55:47.989Z,3.43
2023-04-25T14:58:52.563Z,3.33
2023-04-25T15:01:58.331Z,3.20
2023-04-25T15:05:04.496Z,1.77
2023-04-25T15:08:08.569Z,1.83
2023-04-25T15:11:13.589Z,6.27
2023-04-25T15:14:17.211Z,7.70
2023-04-25T15:17:20.871Z,4.10
2023-04-25T15:20:25.117Z,4.90
2023-04-25T15:23:29.837Z,4.40
2023-04-25T15:26:35.059Z,4.77
2023-04-25T15:29:38.614Z,2.13
2023-04-25T15:32:42.443Z,2.67
2023-04-25T15:35:46.763Z,6.00
2023-04-25T15:38:50.866Z,5.63
2023-04-25T15:41:56.275Z,5.43
2023-04-25T15:44:59.894Z,5.70
2023-04-25T15:48:03.547Z,6.00
2023-04-25T15:51:08.302Z,2.27
2023-04-25T15:54:11.963Z,8.37
2023-04-25T15:57:17.088Z,5.13
2023-04-25T16:00:22.566Z,5.63
2023-04-25T16:03:26.549Z,9.33
2023-04-25T16:06:30.311Z,7.67
2023-04-25T16:09:34.538Z,6.70
2023-04-25T16:12:39.906Z,6.23
2023-04-25T16:15:43.775Z,3.90
2023-04-25T16:18:47.343Z,7.87
2023-04-25T16:21:51.836Z,8.70
2023-04-25T16:24:55.510Z,7.27
2023-04-25T16:28:00.638Z,6.13
2023-04-25T16:31:04.421Z,2.73
2023-04-25T16:34:08.825Z,4.10
2023-04-25T16:37:12.430Z,6.37
2023-04-25T16:40:16.073Z,7.47
2023-04-25T16:43:21.479Z,3.73
2023-04-25T16:46:25.269Z,13.10
2023-04-25T16:49:29.238Z,7.73
2023-04-25T16:52:33.125Z,6.83
2023-04-25T16:55:36.840Z,5.13
2023-04-25T16:58:41.963Z,7.77
2023-04-25T17:01:45.721Z,9.10
2023-04-25T17:04:49.395Z,4.90
2023-04-25T17:07:53.059Z,7.17
2023-04-25T17:10:57.011Z,4.93
2023-04-25T17:14:02.065Z,6.83
2023-04-25T17:17:05.983Z,4.83
2023-04-25T17:20:11.119Z,4.97
2023-04-25T17:23:14.921Z,3.90
2023-04-25T17:26:18.477Z,4.67
2023-04-25T17:29:23.972Z,9.50
2023-04-25T17:32:28.518Z,9.27
2023-04-25T17:35:34.068Z,4.93
2023-04-25T17:38:39.041Z,6.87
2023-04-25T17:41:42.730Z,8.03
2023-04-25T17:44:47.789Z,2.47
2023-04-25T17:47:51.421Z,4.17
2023-04-25T17:50:54.980Z,5.43
2023-04-25T17:53:58.778Z,13.07
2023-04-25T17:57:02.649Z,9.73
2023-04-25T18:00:11.842Z,5.40
2023-04-25T18:03:16.444Z,5.97
2023-04-25T18:06:20.393Z,6.17
2023-04-25T18:09:24.886Z,5.27
2023-04-25T18:12:28.539Z,7.30
2023-04-25T18:15:34.430Z,5.70
2023-04-25T18:18:38.173Z,5.40
2023-04-25T18:21:42.834Z,4.20
2023-04-25T18:24:46.440Z,5.70
2023-04-25T18:27:50.967Z,5.77
2023-04-25T18:30:56.828Z,6.37
2023-04-25T18:34:00.826Z,6.50
2023-04-25T18:37:04.473Z,5.30
2023-04-25T18:40:14.126Z,7.83
2023-04-25T18:43:18.042Z,7.77
2023-04-25T18:46:23.734Z,7.57
2023-04-25T18:49:27.732Z,6.67
2023-04-25T18:52:31.553Z,6.50
2023-04-25T18:55:35.181Z,7.63
2023-04-25T18:58:38.986Z,10.07
2023-04-25T19:01:44.085Z,5.90
2023-04-25T19:04:47.969Z,5.20
2023-04-25T19:07:51.989Z,4.67
2023-04-25T19:10:56.771Z,4.90
2023-04-25T19:14:01.223Z,4.80
2023-04-25T19:17:06.268Z,4.60
2023-04-25T19:20:11.388Z,6.80
2023-04-25T19:23:14.962Z,5.33
2023-04-25T19:26:18.962Z,7.97
2023-04-25T19:29:22.658Z,6.33
2023-04-25T19:32:28.604Z,6.10
2023-04-25T19:35:33.535Z,7.43
2023-04-25T19:38:37.509Z,6.57
2023-04-25T19:41:41.291Z,7.23
2023-04-25T19:44:44.917Z,6.40
2023-04-25T19:47:49.868Z,7.33
2023-04-25T19:50:53.605Z,7.77
2023-04-25T19:53:57.354Z,9.33
2023-04-25T19:57:01.816Z,5.90
2023-04-25T20:00:10.832Z,11.43
2023-04-25T20:03:16.573Z,9.00
2023-04-25T20:06:20.384Z,6.73
2023-04-25T20:09:24.762Z,5.17
2023-04-25T20:12:28.710Z,10.10
2023-04-25T20:15:32.928Z,7.57
2023-04-25T20:18:37.921Z,10.27
2023-04-25T20:21:41.669Z,4.40
2023-04-25T20:24:45.354Z,6.80
2023-04-25T20:27:49.208Z,7.17
2023-04-25T20:30:52.827Z,11.57
2023-04-25T20:33:59.189Z,11.73
2023-04-25T20:37:02.937Z,9.93
2023-04-25T20:40:09.872Z,4.43
2023-04-25T20:43:14.347Z,14.67
2023-04-25T20:46:18.202Z,8.33
2023-04-25T20:49:23.360Z,6.60
2023-04-25T20:52:27.768Z,8.47
2023-04-25T20:55:31.575Z,7.20
2023-04-25T20:58:35.288Z,8.40
2023-04-25T21:01:39.125Z,8.07
2023-04-25T21:04:44.727Z,8.47
2023-04-25T21:07:48.377Z,5.70
2023-04-25T21:10:53.373Z,12.63
2023-04-25T21:13:56.995Z,7.27
2023-04-25T21:17:00.543Z,10.07
2023-04-25T21:20:10.296Z,4.53
2023-04-25T21:23:13.989Z,6.90
2023-04-25T21:26:17.556Z,10.23
2023-04-25T21:29:21.221Z,6.97
2023-04-25T21:32:25.175Z,12.13
2023-04-25T21:35:30.237Z,11.33
2023-04-25T21:38:34.062Z,9.87
2023-04-25T21:41:38.610Z,8.00
2023-04-25T21:44:42.181Z,8.13
2023-04-25T21:47:47.236Z,7.47
2023-04-25T21:50:52.269Z,5.53
2023-04-25T21:53:56.005Z,9.43
2023-04-25T21:56:59.527Z,9.57
2023-04-25T22:00:04.453Z,14.40
2023-04-25T22:03:08.142Z,11.17
2023-04-25T22:06:13.249Z,8.50
2023-04-25T22:09:17.767Z,11.83
2023-04-25T22:12:21.519Z,10.67
2023-04-25T22:15:25.231Z,6.40
2023-04-25T22:18:29.140Z,11.57
2023-04-25T22:21:34.065Z,9.53
2023-04-25T22:24:37.696Z,5.87
2023-04-25T22:27:43.642Z,13.90
2023-04-25T22:30:47.223Z,7.33
2023-04-25T22:33:51.445Z,10.73
2023-04-25T22:36:56.480Z,9.63
2023-04-25T22:40:00.219Z,8.23
2023-04-25T22:43:03.918Z,10.77
2023-04-25T22:46:08.240Z,13.83
2023-04-25T22:49:12.115Z,9.33
2023-04-25T22:52:17.222Z,11.03
2023-04-25T22:55:22.270Z,15.47
2023-04-25T22:58:26.261Z,12.33
2023-04-25T23:01:30.117Z,9.93
2023-04-25T23:04:34.550Z,16.70
2023-04-25T23:07:40.573Z,7.23
2023-04-25T23:10:44.221Z,13.07
2023-04-25T23:13:47.816Z,9.17
2023-04-25T23:16:51.404Z,8.73
2023-04-25T23:19:54.972Z,12.17
2023-04-25T23:23:00.359Z,8.10
2023-04-25T23:26:09.393Z,17.93
2023-04-25T23:29:12.933Z,10.77
2023-04-25T23:32:16.582Z,11.60
2023-04-25T23:35:20.465Z,10.77
2023-04-25T23:38:25.569Z,9.27
2023-04-25T23:41:29.108Z,11.37
2023-04-25T23:44:32.669Z,7.10
2023-04-25T23:47:37.550Z,10.10
2023-04-25T23:50:42.071Z,10.30
2023-04-25T23:53:47.202Z,10.53
2023-04-25T23:56:50.758Z,9.30
2023-04-25T23:59:54.609Z,9.93
